createdAt,value
2017-11-04T00:00:32.573Z,14.23
2017-11-04T00:02:58.906Z,13.17
2017-11-04T00:05:25.176Z,13.93
2017-11-04T00:07:51.325Z,13.67
2017-11-04T00:10:17.723Z,14.00
2017-11-04T00:12:43.867Z,14.17
2017-11-04T00:15:09.980Z,14.33
2017-11-04T00:17:36.282Z,13.57
2017-11-04T00:20:03.198Z,13.27
2017-11-04T00:22:29.420Z,14.90
2017-11-04T00:24:55.548Z,13.87
2017-11-04T00:27:21.775Z,13.73
2017-11-04T00:29:48.002Z,13.93
2017-11-04T00:32:14.146Z,14.63
2017-11-04T00:34:40.368Z,13.70
2017-11-04T00:37:06.464Z,12.50
2017-11-04T00:39:32.658Z,13.27
2017-11-04T00:41:58.816Z,14.53
2017-11-04T00:44:25.003Z,13.40
2017-11-04T00:46:51.213Z,14.03
2017-11-04T00:49:18.166Z,13.20
2017-11-04T00:51:45.185Z,14.20
2017-11-04T00:54:11.415Z,13.60
2017-11-04T00:56:37.601Z,14.23
2017-11-04T00:59:03.738Z,13.40
2017-11-04T01:01:29.879Z,12.73
2017-11-04T01:03:56.097Z,13.67
2017-11-04T01:06:22.323Z,12.67
2017-11-04T01:08:49.266Z,12.90
2017-11-04T01:11:15.508Z,12.97
2017-11-04T01:13:41.700Z,12.97
2017-11-04T01:16:07.808Z,13.93
2017-11-04T01:18:33.986Z,14.17
2017-11-04T01:21:00.171Z,13.50
2017-11-04T01:23:26.408Z,12.80
2017-11-04T01:25:52.624Z,13.00
2017-11-04T01:28:18.705Z,13.00
2017-11-04T01:30:45.639Z,13.50
2017-11-04T01:33:12.661Z,13.23
2017-11-04T01:35:38.908Z,12.97
2017-11-04T01:38:05.080Z,12.37
2017-11-04T01:40:31.374Z,13.60
2017-11-04T01:42:58.228Z,15.23
2017-11-04T01:45:24.475Z,12.40
2017-11-04T01:47:50.649Z,14.17
2017-11-04T01:50:16.813Z,13.43
2017-11-04T01:52:43.095Z,13.30
2017-11-04T01:55:09.286Z,14.57
2017-11-04T01:57:35.486Z,15.30
2017-11-04T02:00:02.513Z,14.97
2017-11-04T02:02:29.379Z,14.47
2017-11-04T02:04:55.604Z,14.03
2017-11-04T02:07:21.789Z,13.90
2017-11-04T02:09:47.947Z,15.37
2017-11-04T02:12:14.226Z,14.63
2017-11-04T02:14:40.432Z,14.70
2017-11-04T02:17:06.605Z,14.10
2017-11-04T02:19:32.750Z,16.10
2017-11-04T02:21:59.691Z,13.97
2017-11-04T02:24:26.646Z,15.10
2017-11-04T02:26:52.847Z,13.87
2017-11-04T02:29:19.119Z,13.83
2017-11-04T02:31:45.312Z,15.90
2017-11-04T02:34:12.323Z,13.70
2017-11-04T02:36:38.620Z,15.67
2017-11-04T02:39:04.797Z,14.67
2017-11-04T02:41:31.781Z,14.87
2017-11-04T02:43:57.898Z,15.07
2017-11-04T02:46:24.084Z,14.43
2017-11-04T02:48:50.183Z,14.10
2017-11-04T02:51:16.258Z,14.07
2017-11-04T02:53:43.265Z,14.07
2017-11-04T02:56:09.418Z,15.37
2017-11-04T02:58:37.220Z,15.03
2017-11-04T03:01:03.353Z,15.83
2017-11-04T03:03:29.652Z,15.47
2017-11-04T03:05:55.805Z,13.33
2017-11-04T03:08:21.986Z,14.50
2017-11-04T03:10:48.845Z,14.37
2017-11-04T03:13:15.207Z,13.90
2017-11-04T03:15:41.347Z,13.80
2017-11-04T03:18:07.519Z,14.87
2017-11-04T03:20:33.618Z,14.57
2017-11-04T03:23:00.642Z,15.00
2017-11-04T03:25:27.488Z,17.07
2017-11-04T03:27:53.669Z,16.30
2017-11-04T03:30:19.856Z,15.70
2017-11-04T03:32:46.807Z,17.23
2017-11-04T03:35:13.763Z,16.60
2017-11-04T03:37:39.911Z,15.57
2017-11-04T03:40:06.050Z,16.77
2017-11-04T03:42:32.327Z,17.00
2017-11-04T03:44:59.230Z,17.10
2017-11-04T03:47:25.377Z,17.50
2017-11-04T03:49:51.632Z,15.70
2017-11-04T03:52:17.826Z,17.50
2017-11-04T03:54:44.045Z,16.30
2017-11-04T03:57:10.180Z,16.40
2017-11-04T03:59:36.650Z,16.93
2017-11-04T04:02:02.776Z,16.50
2017-11-04T04:04:29.000Z,16.10
2017-11-04T04:06:55.088Z,16.80
2017-11-04T04:09:21.292Z,16.90
2017-11-04T04:11:47.464Z,15.30
2017-11-04T04:14:14.420Z,16.60
2017-11-04T04:16:40.650Z,17.07
2017-11-04T04:19:06.784Z,16.70
2017-11-04T04:21:33.027Z,16.20
2017-11-04T04:23:59.204Z,15.70
2017-11-04T04:26:26.101Z,14.90
2017-11-04T04:28:52.206Z,16.90
2017-11-04T04:31:18.369Z,18.60
2017-11-04T04:33:44.525Z,16.47
2017-11-04T04:36:11.396Z,16.73
2017-11-04T04:38:37.622Z,15.87
2017-11-04T04:41:03.798Z,15.70
2017-11-04T04:43:30.086Z,16.20
2017-11-04T04:45:56.235Z,14.77
2017-11-04T04:48:22.523Z,17.20
2017-11-04T04:50:48.781Z,16.17
2017-11-04T04:53:14.939Z,16.10
2017-11-04T04:55:41.087Z,15.47
2017-11-04T04:58:07.972Z,15.37
2017-11-04T05:00:34.132Z,15.73
2017-11-04T05:03:01.010Z,15.67
2017-11-04T05:05:27.247Z,16.00
2017-11-04T05:07:53.372Z,15.70
2017-11-04T05:10:19.523Z,15.10
2017-11-04T05:12:45.705Z,15.80
2017-11-04T05:15:11.816Z,14.40
2017-11-04T05:17:38.660Z,16.27
2017-11-04T05:20:05.690Z,15.30
2017-11-04T05:22:32.580Z,14.50
2017-11-04T05:24:58.753Z,15.13
2017-11-04T05:27:24.909Z,16.10
2017-11-04T05:29:51.061Z,16.70
2017-11-04T05:32:17.220Z,16.23
2017-11-04T05:34:43.370Z,15.57
2017-11-04T05:37:09.546Z,15.47
2017-11-04T05:39:35.700Z,15.80
2017-11-04T05:42:01.840Z,16.90
2017-11-04T05:44:28.852Z,16.50
2017-11-04T05:46:54.984Z,17.70
2017-11-04T05:49:21.060Z,17.17
2017-11-04T05:51:47.294Z,16.80
2017-11-04T05:54:13.556Z,16.17
2017-11-04T05:56:39.823Z,18.37
2017-11-04T05:59:06.716Z,18.10
2017-11-04T06:01:32.869Z,17.57
2017-11-04T06:03:59.871Z,16.83
2017-11-04T06:06:26.043Z,17.23
2017-11-04T06:08:53.017Z,17.97
2017-11-04T06:11:19.192Z,18.47
2017-11-04T06:13:45.300Z,18.53
2017-11-04T06:16:11.616Z,17.27
2017-11-04T06:18:38.477Z,17.33
2017-11-04T06:21:04.672Z,18.10
2017-11-04T06:23:30.835Z,18.33
2017-11-04T06:25:57.020Z,17.47
2017-11-04T06:28:23.182Z,17.03
2017-11-04T06:30:49.312Z,16.00
2017-11-04T06:33:15.492Z,17.60
2017-11-04T06:35:41.748Z,15.70
2017-11-04T06:38:07.878Z,17.37
2017-11-04T06:40:34.124Z,18.03
2017-11-04T06:43:00.310Z,16.67
2017-11-04T06:45:26.572Z,17.80
2017-11-04T06:47:52.734Z,18.13
2017-11-04T06:50:18.893Z,20.90
2017-11-04T06:52:45.100Z,20.93
2017-11-04T06:55:11.298Z,20.20
2017-11-04T06:57:38.195Z,19.30
2017-11-04T07:00:04.463Z,19.57
2017-11-04T07:02:31.474Z,19.17
2017-11-04T07:04:57.574Z,20.57
2017-11-04T07:07:23.772Z,18.07
2017-11-04T07:09:49.922Z,20.13
2017-11-04T07:12:16.254Z,20.07
2017-11-04T07:14:42.398Z,20.10
2017-11-04T07:17:08.565Z,20.57
2017-11-04T07:19:35.434Z,22.20
2017-11-04T07:22:01.689Z,23.33
2017-11-04T07:24:27.882Z,23.17
2017-11-04T07:26:54.108Z,20.73
2017-11-04T07:29:20.359Z,22.20
2017-11-04T07:31:46.460Z,19.80
2017-11-04T07:34:12.683Z,21.27
2017-11-04T07:36:39.161Z,19.83
2017-11-04T07:39:05.311Z,20.20
2017-11-04T07:41:32.254Z,19.60
2017-11-04T07:43:59.140Z,18.60
2017-11-04T07:46:25.312Z,18.77
2017-11-04T07:48:51.553Z,18.90
2017-11-04T07:51:18.635Z,16.37
2017-11-04T07:53:44.779Z,18.33
2017-11-04T07:56:10.994Z,17.27
2017-11-04T07:58:37.153Z,19.23
2017-11-04T08:01:03.308Z,19.47
2017-11-04T08:03:30.255Z,17.53
2017-11-04T08:05:57.206Z,22.80
2017-11-04T08:08:23.434Z,22.20
2017-11-04T08:10:49.595Z,22.90
2017-11-04T08:13:15.746Z,22.60
2017-11-04T08:15:42.016Z,21.77
2017-11-04T08:18:08.135Z,22.03
2017-11-04T08:20:35.059Z,23.73
2017-11-04T08:23:01.923Z,25.87
2017-11-04T08:25:28.166Z,24.90
2017-11-04T08:27:54.344Z,34.20
2017-11-04T08:30:20.511Z,31.33
2017-11-04T08:32:46.627Z,31.23
2017-11-04T08:35:12.780Z,24.67
2017-11-04T08:37:39.050Z,28.03
2017-11-04T08:40:06.214Z,31.47
2017-11-04T08:42:32.420Z,18.20
2017-11-04T08:44:59.479Z,15.37
2017-11-04T08:47:26.491Z,18.90
2017-11-04T08:49:52.826Z,17.70
2017-11-04T08:52:19.055Z,15.43
2017-11-04T08:54:45.406Z,16.07
2017-11-04T08:57:12.463Z,13.40
2017-11-04T08:59:39.634Z,12.50
2017-11-04T09:02:05.928Z,12.60
2017-11-04T09:04:32.993Z,14.30
2017-11-04T09:06:59.194Z,13.07
2017-11-04T09:09:25.345Z,13.60
2017-11-04T09:11:51.642Z,11.73
2017-11-04T09:14:18.608Z,13.10
2017-11-04T09:16:45.782Z,12.73
2017-11-04T09:19:12.095Z,14.80
2017-11-04T09:21:38.336Z,15.77
2017-11-04T09:24:04.562Z,17.70
2017-11-04T09:26:30.737Z,16.20
2017-11-04T09:28:56.974Z,18.17
2017-11-04T09:31:23.172Z,17.17
2017-11-04T09:33:49.420Z,16.00
2017-11-04T09:36:16.167Z,16.37
2017-11-04T09:38:43.006Z,16.67
2017-11-04T09:41:10.016Z,16.23
2017-11-04T09:43:36.206Z,15.77
2017-11-04T09:46:02.382Z,16.37
2017-11-04T09:48:28.674Z,15.50
2017-11-04T09:50:54.831Z,16.13
2017-11-04T09:53:21.123Z,15.90
2017-11-04T09:55:47.616Z,15.90
2017-11-04T09:58:16.320Z,18.00
2017-11-04T10:00:42.538Z,14.57
2017-11-04T10:03:09.520Z,15.93
2017-11-04T10:05:35.731Z,15.03
2017-11-04T10:08:01.921Z,14.60
2017-11-04T10:10:28.924Z,15.13
2017-11-04T10:12:55.190Z,20.80
2017-11-04T10:15:21.556Z,17.03
2017-11-04T10:17:47.743Z,13.70
2017-11-04T10:20:14.105Z,14.93
2017-11-04T10:22:41.046Z,20.97
2017-11-04T10:25:07.945Z,15.60
2017-11-04T10:27:34.011Z,14.73
2017-11-04T10:30:00.963Z,13.87
2017-11-04T10:32:27.433Z,15.33
2017-11-04T10:34:53.605Z,14.07
2017-11-04T10:37:20.503Z,14.47
2017-11-04T10:39:46.748Z,13.73
2017-11-04T10:42:12.914Z,14.37
2017-11-04T10:44:39.098Z,15.03
2017-11-04T10:47:05.381Z,14.60
2017-11-04T10:49:31.579Z,14.90
2017-11-04T10:51:58.496Z,13.70
2017-11-04T10:54:24.700Z,15.27
2017-11-04T10:56:50.919Z,15.33
2017-11-04T10:59:17.233Z,15.20
2017-11-04T11:01:43.347Z,15.23
2017-11-04T11:04:09.654Z,15.10
2017-11-04T11:06:36.827Z,15.33
2017-11-04T11:09:03.071Z,16.40
2017-11-04T11:11:29.262Z,16.70
2017-11-04T11:13:56.202Z,15.23
2017-11-04T11:16:23.235Z,16.50
2017-11-04T11:18:50.240Z,15.50
2017-11-04T11:21:16.545Z,15.67
2017-11-04T11:23:42.760Z,15.93
2017-11-04T11:26:09.823Z,16.23
2017-11-04T11:28:36.064Z,16.67
2017-11-04T11:31:02.320Z,15.73
2017-11-04T11:33:28.635Z,17.77
2017-11-04T11:35:54.965Z,16.90
2017-11-04T11:38:21.092Z,17.60
2017-11-04T11:40:47.339Z,16.80
2017-11-04T11:43:13.622Z,17.80
2017-11-04T11:45:39.897Z,19.33
2017-11-04T11:48:06.080Z,17.10
2017-11-04T11:50:32.270Z,17.50
2017-11-04T11:52:59.248Z,17.53
2017-11-04T11:55:25.451Z,19.30
2017-11-04T11:57:51.724Z,19.50
2017-11-04T12:00:17.924Z,18.97
2017-11-04T12:02:44.242Z,17.77
2017-11-04T12:05:10.545Z,17.23
2017-11-04T12:07:36.676Z,16.70
2017-11-04T12:10:02.918Z,16.73
2017-11-04T12:12:29.913Z,16.60
2017-11-04T12:14:56.190Z,14.93
2017-11-04T12:17:22.470Z,14.90
2017-11-04T12:19:48.606Z,15.50
2017-11-04T12:22:14.852Z,15.60
2017-11-04T12:24:41.044Z,15.90
2017-11-04T12:27:07.262Z,13.50
2017-11-04T12:29:33.505Z,18.33
2017-11-04T12:31:59.692Z,20.87
2017-11-04T12:34:25.923Z,17.53
2017-11-04T12:36:52.037Z,17.13
2017-11-04T12:39:18.267Z,18.97
2017-11-04T12:41:44.556Z,15.97
2017-11-04T12:44:10.673Z,20.97
2017-11-04T12:46:37.079Z,21.50
2017-11-04T12:49:03.390Z,14.60
2017-11-04T12:51:29.612Z,14.90
2017-11-04T12:53:55.992Z,14.57
2017-11-04T12:56:22.082Z,17.20
2017-11-04T12:58:48.324Z,14.73
2017-11-04T13:01:14.450Z,15.07
2017-11-04T13:03:40.708Z,14.50
2017-11-04T13:06:07.708Z,15.10
2017-11-04T13:08:33.782Z,13.50
2017-11-04T13:11:00.659Z,13.60
2017-11-04T13:13:26.773Z,13.90
2017-11-04T13:15:52.962Z,12.50
2017-11-04T13:18:19.634Z,12.33
2017-11-04T13:20:45.765Z,12.87
2017-11-04T13:23:11.961Z,13.87
2017-11-04T13:25:38.305Z,13.77
2017-11-04T13:28:05.188Z,12.57
2017-11-04T13:30:31.471Z,11.73
2017-11-04T13:32:58.323Z,12.70
2017-11-04T13:35:25.241Z,12.33
2017-11-04T13:37:51.458Z,12.53
2017-11-04T13:40:17.631Z,11.90
2017-11-04T13:42:43.810Z,10.77
2017-11-04T13:45:09.966Z,11.13
2017-11-04T13:47:36.859Z,10.80
2017-11-04T13:50:03.074Z,10.33
2017-11-04T13:52:29.290Z,11.73
2017-11-04T13:54:55.478Z,10.30
2017-11-04T13:57:22.482Z,11.40
2017-11-04T13:59:48.752Z,10.83
2017-11-04T14:02:15.727Z,10.57
2017-11-04T14:04:41.960Z,11.20
2017-11-04T14:07:08.159Z,10.17
2017-11-04T14:09:34.411Z,10.83
2017-11-04T14:12:00.608Z,11.70
2017-11-04T14:14:27.477Z,13.03
2017-11-04T14:16:54.745Z,13.70
2017-11-04T14:19:20.960Z,12.97
2017-11-04T14:21:47.189Z,13.53
2017-11-04T14:24:13.279Z,13.67
2017-11-04T14:26:40.220Z,12.60
2017-11-04T14:29:07.168Z,12.77
2017-11-04T14:31:34.136Z,12.37
2017-11-04T14:34:00.328Z,13.10
2017-11-04T14:36:27.380Z,11.97
2017-11-04T14:38:54.368Z,11.17
2017-11-04T14:41:20.528Z,11.70
2017-11-04T14:43:46.688Z,12.40
2017-11-04T14:46:13.741Z,10.80
2017-11-04T14:48:40.092Z,11.33
2017-11-04T14:51:06.416Z,10.60
2017-11-04T14:53:32.618Z,11.33
2017-11-04T14:55:59.622Z,11.37
2017-11-04T14:58:25.792Z,11.67
2017-11-04T15:00:52.000Z,11.87
2017-11-04T15:03:19.017Z,14.10
2017-11-04T15:05:45.195Z,12.50
2017-11-04T15:08:11.344Z,11.70
2017-11-04T15:10:37.596Z,12.07
2017-11-04T15:13:03.829Z,11.20
2017-11-04T15:15:30.188Z,11.00
2017-11-04T15:17:57.214Z,11.10
2017-11-04T15:20:23.364Z,10.53
2017-11-04T15:22:50.286Z,11.00
2017-11-04T15:25:16.521Z,11.30
2017-11-04T15:27:43.455Z,11.33
2017-11-04T15:30:09.613Z,12.70
2017-11-04T15:32:35.845Z,12.40
2017-11-04T15:35:02.070Z,12.37
2017-11-04T15:37:28.314Z,11.87
2017-11-04T15:39:54.754Z,11.70
2017-11-04T15:42:20.906Z,12.10
2017-11-04T15:44:47.221Z,13.50
2017-11-04T15:47:13.335Z,13.33
2017-11-04T15:49:39.635Z,12.60
2017-11-04T15:52:06.627Z,13.37
2017-11-04T15:54:33.520Z,14.60
2017-11-04T15:56:59.696Z,14.40
2017-11-04T15:59:25.914Z,13.17
2017-11-04T16:01:52.234Z,13.83
2017-11-04T16:04:18.393Z,15.23
2017-11-04T16:06:44.660Z,16.40
2017-11-04T16:09:10.893Z,14.30
2017-11-04T16:11:37.102Z,15.40
2017-11-04T16:14:04.062Z,14.60
2017-11-04T16:16:30.294Z,16.37
2017-11-04T16:18:56.615Z,15.27
2017-11-04T16:21:22.869Z,15.87
2017-11-04T16:23:49.175Z,20.20
2017-11-04T16:26:15.408Z,16.77
2017-11-04T16:28:41.575Z,16.30
2017-11-04T16:31:07.845Z,20.13
2017-11-04T16:33:34.818Z,18.07
2017-11-04T16:36:01.069Z,18.63
2017-11-04T16:38:27.357Z,16.50
2017-11-04T16:40:53.583Z,16.67
2017-11-04T16:43:19.967Z,17.10
2017-11-04T16:45:46.452Z,17.60
2017-11-04T16:48:12.566Z,18.33
2017-11-04T16:50:38.726Z,23.10
2017-11-04T16:53:04.949Z,23.27
2017-11-04T16:55:31.295Z,22.30
2017-11-04T16:57:57.520Z,22.37
2017-11-04T17:00:23.727Z,18.90
2017-11-04T17:02:50.007Z,20.50
2017-11-04T17:05:17.083Z,19.80
2017-11-04T17:07:43.328Z,20.37
2017-11-04T17:10:09.530Z,20.23
2017-11-04T17:12:35.697Z,19.33
2017-11-04T17:15:02.193Z,19.60
2017-11-04T17:17:29.721Z,23.13
2017-11-04T17:19:55.915Z,236.17
2017-11-04T17:22:22.118Z,337.87
2017-11-04T17:24:48.389Z,109.60
2017-11-04T17:27:14.557Z,324.87
2017-11-04T17:29:41.072Z,41.10
2017-11-04T17:32:08.141Z,462.20
2017-11-04T17:34:34.361Z,288.20
2017-11-04T17:37:00.576Z,394.17
2017-11-04T17:39:27.512Z,834.37
2017-11-04T17:41:54.549Z,499.10
2017-11-04T17:44:20.650Z,238.50
2017-11-04T17:46:46.923Z,132.73
2017-11-04T17:49:13.817Z,102.10
2017-11-04T17:51:40.071Z,518.57
2017-11-04T17:54:06.294Z,433.57
2017-11-04T17:56:33.456Z,98.17
2017-11-04T17:59:01.379Z,669.63
2017-11-04T18:01:27.749Z,112.13
2017-11-04T18:03:54.921Z,132.40
2017-11-04T18:06:21.156Z,55.03
2017-11-04T18:08:47.355Z,28.67
2017-11-04T18:11:14.241Z,37.63
2017-11-04T18:13:40.437Z,28.83
2017-11-04T18:16:07.398Z,20.40
2017-11-04T18:18:33.604Z,34.30
2017-11-04T18:21:00.706Z,51.17
2017-11-04T18:23:26.888Z,24.90
2017-11-04T18:25:53.123Z,23.63
2017-11-04T18:28:19.341Z,21.53
2017-11-04T18:30:45.544Z,22.00
2017-11-04T18:33:12.482Z,23.13
2017-11-04T18:35:38.666Z,23.27
2017-11-04T18:38:04.832Z,22.40
2017-11-04T18:40:30.990Z,23.20
2017-11-04T18:42:57.237Z,20.87
2017-11-04T18:45:23.374Z,20.50
2017-11-04T18:47:50.005Z,21.00
2017-11-04T18:50:16.108Z,22.10
2017-11-04T18:52:42.257Z,21.90
2017-11-04T18:55:09.402Z,19.70
2017-11-04T18:57:35.734Z,20.50
2017-11-04T19:00:01.938Z,21.27
2017-11-04T19:02:28.204Z,21.00
2017-11-04T19:04:54.535Z,20.87
2017-11-04T19:07:20.720Z,21.17
2017-11-04T19:09:46.925Z,37.27
2017-11-04T19:12:13.801Z,72.73
2017-11-04T19:14:39.970Z,26.60
2017-11-04T19:17:06.312Z,30.27
2017-11-04T19:19:32.657Z,28.10
2017-11-04T19:21:59.559Z,23.10
2017-11-04T19:24:25.757Z,21.07
2017-11-04T19:26:51.960Z,21.57
2017-11-04T19:29:19.075Z,21.67
2017-11-04T19:31:45.212Z,21.50
2017-11-04T19:34:11.630Z,23.33
2017-11-04T19:36:37.917Z,24.73
2017-11-04T19:39:04.238Z,23.90
2017-11-04T19:41:30.445Z,25.67
2017-11-04T19:43:56.685Z,23.97
2017-11-04T19:46:23.458Z,25.90
2017-11-04T19:48:50.531Z,23.53
2017-11-04T19:51:17.220Z,24.30
2017-11-04T19:53:43.605Z,24.23
2017-11-04T19:56:10.552Z,26.47
2017-11-04T19:58:36.795Z,29.77
2017-11-04T20:01:03.653Z,27.03
2017-11-04T20:03:29.875Z,27.17
2017-11-04T20:05:56.000Z,25.13
2017-11-04T20:08:22.184Z,38.27
2017-11-04T20:10:48.354Z,25.37
2017-11-04T20:13:14.530Z,24.00
2017-11-04T20:15:40.690Z,22.60
2017-11-04T20:18:07.638Z,24.17
2017-11-04T20:20:34.181Z,24.10
2017-11-04T20:23:00.370Z,24.00
2017-11-04T20:25:26.563Z,24.10
2017-11-04T20:27:52.728Z,22.90
2017-11-04T20:30:19.737Z,22.77
2017-11-04T20:32:45.891Z,23.10
2017-11-04T20:35:12.118Z,23.50
2017-11-04T20:37:38.555Z,23.00
2017-11-04T20:40:04.764Z,22.87
2017-11-04T20:42:31.034Z,23.27
2017-11-04T20:44:57.196Z,20.77
2017-11-04T20:47:23.367Z,21.03
2017-11-04T20:49:50.303Z,21.70
2017-11-04T20:52:16.546Z,22.67
2017-11-04T20:54:43.567Z,29.80
2017-11-04T20:57:09.796Z,36.30
2017-11-04T20:59:37.219Z,23.10
2017-11-04T21:02:03.451Z,28.70
2017-11-04T21:04:29.641Z,26.50
2017-11-04T21:06:55.806Z,33.17
2017-11-04T21:09:22.825Z,23.80
2017-11-04T21:11:49.048Z,24.50
2017-11-04T21:14:15.205Z,21.70
2017-11-04T21:16:41.483Z,23.43
2017-11-04T21:19:07.816Z,22.47
2017-11-04T21:21:34.756Z,23.60
2017-11-04T21:24:00.976Z,22.70
2017-11-04T21:26:27.885Z,23.53
2017-11-04T21:28:53.995Z,20.93
2017-11-04T21:31:20.211Z,22.60
2017-11-04T21:33:46.369Z,21.93
2017-11-04T21:36:12.497Z,22.37
2017-11-04T21:38:38.656Z,21.13
2017-11-04T21:41:05.650Z,23.07
2017-11-04T21:43:32.015Z,23.30
2017-11-04T21:45:59.193Z,22.57
2017-11-04T21:48:25.380Z,22.63
2017-11-04T21:50:52.910Z,23.83
2017-11-04T21:53:20.185Z,25.73
2017-11-04T21:55:46.462Z,47.67
2017-11-04T21:58:12.594Z,22.80
2017-11-04T22:00:39.011Z,22.37
2017-11-04T22:03:05.258Z,21.77
2017-11-04T22:05:31.504Z,22.70
2017-11-04T22:07:57.695Z,23.10
2017-11-04T22:10:23.946Z,22.57
2017-11-04T22:12:50.143Z,32.07
2017-11-04T22:15:16.277Z,88.93
2017-11-04T22:17:42.570Z,26.10
2017-11-04T22:20:09.614Z,23.53
2017-11-04T22:22:35.806Z,23.70
2017-11-04T22:25:02.147Z,25.50
2017-11-04T22:27:28.353Z,24.43
2017-11-04T22:29:54.615Z,23.90
2017-11-04T22:32:20.924Z,24.00
2017-11-04T22:34:47.414Z,23.97
2017-11-04T22:37:13.754Z,25.13
2017-11-04T22:39:39.967Z,25.70
2017-11-04T22:42:06.197Z,23.73
2017-11-04T22:44:32.428Z,24.23
2017-11-04T22:46:58.715Z,23.20
2017-11-04T22:49:24.885Z,23.67
2017-11-04T22:51:51.088Z,23.77
2017-11-04T22:54:18.018Z,23.37
2017-11-04T22:56:44.306Z,22.53
2017-11-04T22:59:10.560Z,22.70
2017-11-04T23:01:36.738Z,22.00
2017-11-04T23:04:02.930Z,22.83
2017-11-04T23:06:30.394Z,21.13
2017-11-04T23:08:57.333Z,21.63
2017-11-04T23:11:24.279Z,20.60
2017-11-04T23:13:51.262Z,22.50
2017-11-04T23:16:17.487Z,20.73
2017-11-04T23:18:43.701Z,20.53
2017-11-04T23:21:09.900Z,21.27
2017-11-04T23:23:36.924Z,22.33
2017-11-04T23:26:03.060Z,20.27
2017-11-04T23:28:29.423Z,21.00
2017-11-04T23:30:55.660Z,20.63
2017-11-04T23:33:21.936Z,22.13
2017-11-04T23:35:48.065Z,20.00
2017-11-04T23:38:15.001Z,19.23
2017-11-04T23:40:41.217Z,20.60
2017-11-04T23:43:07.362Z,19.53
2017-11-04T23:45:33.494Z,20.50
2017-11-04T23:47:59.676Z,20.80
2017-11-04T23:50:25.821Z,20.30
2017-11-04T23:52:52.064Z,20.57
2017-11-04T23:55:18.272Z,20.87
2017-11-04T23:57:44.443Z,20.00
